N66M KSNA-KTNP
Flight info
| Callsign | N66M |
|---|---|
| Flight time | 0h 26m |
| Altitude | 17000 |
| Route | MUSEL8 SLI PDZ DEWAY PSP |
| Aircraft | E55P/L-VGDW/C |
Departure
| Time | 2026-04-25 02:46 |
|---|---|
| Airport | John Wayne Orange County International Airport (KSNA) |
Arrival
| Time | 2026-04-25 03:12 |
|---|---|
| Airport | Twentynine Palms Airport (KTNP) |
| Time | Latitude | Longitude | Altitude | Speed | Heading |
|---|---|---|---|---|---|
| 2026-04-25 02:19 | 33.67432 | -117.87206 | 66 ft | 0 kts | 299° |
| 2026-04-25 02:41 | 33.67436 | -117.87209 | 59 ft | 1 kts | 345° |
| 2026-04-25 02:41 | 33.67443 | -117.87180 | 59 ft | 6 kts | 100° |
| 2026-04-25 02:41 | 33.67445 | -117.87117 | 59 ft | 9 kts | 45° |
| 2026-04-25 02:41 | 33.67521 | -117.87065 | 59 ft | 14 kts | 27° |
| 2026-04-25 02:42 | 33.67625 | -117.86999 | 58 ft | 18 kts | 28° |
| 2026-04-25 02:42 | 33.67753 | -117.86916 | 55 ft | 23 kts | 27° |
| 2026-04-25 02:42 | 33.67911 | -117.86820 | 51 ft | 24 kts | 22° |
| 2026-04-25 02:42 | 33.68049 | -117.86749 | 48 ft | 19 kts | 28° |
| 2026-04-25 02:43 | 33.68155 | -117.86684 | 46 ft | 13 kts | 30° |
| 2026-04-25 02:43 | 33.68195 | -117.86622 | 46 ft | 6 kts | 82° |
| 2026-04-25 02:43 | 33.68193 | -117.86599 | 46 ft | 1 kts | 107° |
| 2026-04-25 02:43 | 33.68193 | -117.86598 | 46 ft | 0 kts | 107° |
| 2026-04-25 02:44 | 33.68192 | -117.86595 | 46 ft | 1 kts | 110° |
| 2026-04-25 02:44 | 33.68187 | -117.86581 | 46 ft | 2 kts | 117° |
| 2026-04-25 02:44 | 33.68173 | -117.86555 | 46 ft | 4 kts | 124° |
| 2026-04-25 02:44 | 33.68138 | -117.86538 | 47 ft | 4 kts | 180° |
| 2026-04-25 02:45 | 33.68097 | -117.86551 | 47 ft | 3 kts | 207° |
| 2026-04-25 02:45 | 33.68061 | -117.86575 | 48 ft | 12 kts | 208° |
| 2026-04-25 02:45 | 33.67814 | -117.86731 | 53 ft | 77 kts | 208° |
| 2026-04-25 02:45 | 33.67133 | -117.87167 | 85 ft | 138 kts | 209° |
| 2026-04-25 02:46 | 33.66252 | -117.87754 | 576 ft | 158 kts | 209° |
| 2026-04-25 02:46 | 33.65223 | -117.88363 | 1236 ft | 177 kts | 210° |
| 2026-04-25 02:46 | 33.64446 | -117.89582 | 1878 ft | 202 kts | 257° |
| 2026-04-25 02:46 | 33.64710 | -117.91276 | 2668 ft | 225 kts | 301° |
| 2026-04-25 02:47 | 33.65806 | -117.92679 | 3441 ft | 243 kts | 307° |
| 2026-04-25 02:47 | 33.66956 | -117.94197 | 4279 ft | 256 kts | 316° |
| 2026-04-25 02:47 | 33.68314 | -117.95615 | 5166 ft | 265 kts | 318° |
| 2026-04-25 02:47 | 33.69751 | -117.97047 | 6044 ft | 271 kts | 319° |
| 2026-04-25 02:48 | 33.71202 | -117.98480 | 6911 ft | 274 kts | 318° |
| 2026-04-25 02:48 | 33.72649 | -117.99939 | 7787 ft | 276 kts | 318° |
| 2026-04-25 02:48 | 33.74202 | -118.01296 | 8654 ft | 280 kts | 335° |
| 2026-04-25 02:48 | 33.76090 | -118.01548 | 9543 ft | 283 kts | 10° |
| 2026-04-25 02:49 | 33.77847 | -118.00450 | 10421 ft | 297 kts | 45° |
| 2026-04-25 02:49 | 33.78988 | -117.98338 | 11428 ft | 309 kts | 63° |
| 2026-04-25 02:49 | 33.79868 | -117.95955 | 12380 ft | 321 kts | 70° |
| 2026-04-25 02:49 | 33.80618 | -117.93404 | 12895 ft | 339 kts | 71° |
| 2026-04-25 02:50 | 33.81398 | -117.90627 | 12982 ft | 363 kts | 71° |
| 2026-04-25 02:50 | 33.82231 | -117.87646 | 13003 ft | 385 kts | 71° |
| 2026-04-25 02:50 | 33.83088 | -117.84569 | 12999 ft | 387 kts | 71° |
| 2026-04-25 02:50 | 33.83946 | -117.81486 | 13001 ft | 390 kts | 71° |
| 2026-04-25 02:51 | 33.84812 | -117.78373 | 12994 ft | 392 kts | 70° |
| 2026-04-25 02:51 | 33.85677 | -117.75264 | 12991 ft | 394 kts | 70° |
| 2026-04-25 02:51 | 33.86534 | -117.72175 | 12992 ft | 395 kts | 70° |
| 2026-04-25 02:51 | 33.87411 | -117.69014 | 12994 ft | 395 kts | 70° |
| 2026-04-25 02:52 | 33.88281 | -117.65872 | 12989 ft | 396 kts | 70° |
| 2026-04-25 02:52 | 33.89140 | -117.62766 | 12984 ft | 396 kts | 70° |
| 2026-04-25 02:52 | 33.90016 | -117.59596 | 12981 ft | 396 kts | 70° |
| 2026-04-25 02:52 | 33.90881 | -117.56462 | 12977 ft | 396 kts | 70° |
| 2026-04-25 02:53 | 33.91722 | -117.53313 | 12974 ft | 397 kts | 75° |
| 2026-04-25 02:53 | 33.91949 | -117.50020 | 12995 ft | 396 kts | 89° |
| 2026-04-25 02:53 | 33.92113 | -117.46684 | 12982 ft | 397 kts | 88° |
| 2026-04-25 02:53 | 33.92230 | -117.43388 | 12982 ft | 397 kts | 86° |
| 2026-04-25 02:54 | 33.92361 | -117.40063 | 12982 ft | 398 kts | 87° |
| 2026-04-25 02:54 | 33.92500 | -117.36746 | 12981 ft | 398 kts | 88° |
| 2026-04-25 02:54 | 33.92634 | -117.33394 | 13188 ft | 403 kts | 88° |
| 2026-04-25 02:54 | 33.92767 | -117.30036 | 13712 ft | 409 kts | 88° |
| 2026-04-25 02:55 | 33.92902 | -117.26608 | 14411 ft | 410 kts | 88° |
| 2026-04-25 02:55 | 33.93037 | -117.23194 | 15090 ft | 415 kts | 88° |
| 2026-04-25 02:55 | 33.93174 | -117.19685 | 15765 ft | 420 kts | 88° |
| 2026-04-25 02:55 | 33.93310 | -117.16191 | 16362 ft | 426 kts | 88° |
| 2026-04-25 02:56 | 33.93447 | -117.12617 | 16930 ft | 432 kts | 88° |
| 2026-04-25 02:56 | 33.93586 | -117.08979 | 17067 ft | 436 kts | 88° |
| 2026-04-25 02:56 | 33.93724 | -117.05333 | 17108 ft | 443 kts | 88° |
| 2026-04-25 02:56 | 33.93865 | -117.01596 | 17126 ft | 450 kts | 88° |
| 2026-04-25 02:57 | 33.94003 | -116.97875 | 17120 ft | 445 kts | 88° |
| 2026-04-25 02:57 | 33.94141 | -116.94170 | 17158 ft | 443 kts | 88° |
| 2026-04-25 02:57 | 33.94277 | -116.90447 | 17152 ft | 446 kts | 88° |
| 2026-04-25 02:57 | 33.94413 | -116.86697 | 17123 ft | 446 kts | 88° |
| 2026-04-25 02:58 | 33.94548 | -116.82980 | 17072 ft | 445 kts | 88° |
| 2026-04-25 02:58 | 33.94679 | -116.79304 | 17025 ft | 443 kts | 88° |
| 2026-04-25 02:58 | 33.94806 | -116.75619 | 16978 ft | 442 kts | 89° |
| 2026-04-25 02:58 | 33.94397 | -116.71993 | 16893 ft | 431 kts | 110° |
| 2026-04-25 02:59 | 33.93507 | -116.68554 | 16966 ft | 431 kts | 109° |
| 2026-04-25 02:59 | 33.92617 | -116.65091 | 16995 ft | 435 kts | 110° |
| 2026-04-25 02:59 | 33.91738 | -116.61624 | 16992 ft | 440 kts | 110° |
| 2026-04-25 02:59 | 33.90836 | -116.58076 | 16895 ft | 446 kts | 110° |
| 2026-04-25 03:00 | 33.89928 | -116.54497 | 16766 ft | 444 kts | 110° |
| 2026-04-25 03:00 | 33.89041 | -116.51000 | 16782 ft | 436 kts | 110° |
| 2026-04-25 03:00 | 33.88156 | -116.47523 | 16958 ft | 440 kts | 109° |
| 2026-04-25 03:00 | 33.87688 | -116.43866 | 16975 ft | 448 kts | 89° |
| 2026-04-25 03:01 | 33.88316 | -116.40198 | 17011 ft | 450 kts | 68° |
| 2026-04-25 03:01 | 33.89914 | -116.36976 | 17029 ft | 444 kts | 46° |
| 2026-04-25 03:01 | 33.91857 | -116.34200 | 17046 ft | 432 kts | 57° |
| 2026-04-25 03:01 | 33.93401 | -116.31169 | 16880 ft | 420 kts | 52° |
| 2026-04-25 03:02 | 33.94975 | -116.28281 | 16501 ft | 413 kts | 55° |
| 2026-04-25 03:02 | 33.96549 | -116.25400 | 16080 ft | 401 kts | 55° |
| 2026-04-25 03:02 | 33.98046 | -116.22629 | 15678 ft | 391 kts | 55° |
| 2026-04-25 03:02 | 33.99491 | -116.19952 | 15283 ft | 377 kts | 55° |
| 2026-04-25 03:03 | 34.00905 | -116.17337 | 14766 ft | 365 kts | 55° |
| 2026-04-25 03:03 | 34.02269 | -116.14812 | 14182 ft | 354 kts | 55° |
| 2026-04-25 03:03 | 34.03589 | -116.12363 | 13793 ft | 337 kts | 55° |
| 2026-04-25 03:03 | 34.04859 | -116.10010 | 12963 ft | 336 kts | 55° |
| 2026-04-25 03:04 | 34.06129 | -116.07657 | 12195 ft | 334 kts | 55° |
| 2026-04-25 03:04 | 34.07388 | -116.05318 | 11480 ft | 329 kts | 55° |
| 2026-04-25 03:04 | 34.08580 | -116.03102 | 10721 ft | 308 kts | 55° |
| 2026-04-25 03:05 | 34.09515 | -115.98511 | 9381 ft | 277 kts | 96° |
| 2026-04-25 03:05 | 34.09336 | -115.96259 | 8732 ft | 268 kts | 98° |
| 2026-04-25 03:05 | 34.09148 | -115.94038 | 8285 ft | 264 kts | 98° |
| 2026-04-25 03:05 | 34.08960 | -115.91842 | 7913 ft | 267 kts | 98° |
| 2026-04-25 03:06 | 34.08768 | -115.89630 | 7401 ft | 262 kts | 98° |
| 2026-04-25 03:06 | 34.08585 | -115.87481 | 6914 ft | 252 kts | 98° |
| 2026-04-25 03:06 | 34.08413 | -115.85419 | 6434 ft | 245 kts | 98° |
| 2026-04-25 03:06 | 34.08251 | -115.83423 | 5956 ft | 238 kts | 98° |
| 2026-04-25 03:07 | 34.08099 | -115.81474 | 5467 ft | 230 kts | 98° |
| 2026-04-25 03:07 | 34.07957 | -115.79587 | 4982 ft | 224 kts | 97° |
| 2026-04-25 03:07 | 34.07882 | -115.77737 | 4518 ft | 225 kts | 84° |
| 2026-04-25 03:07 | 34.08609 | -115.76075 | 4095 ft | 230 kts | 38° |
| 2026-04-25 03:08 | 34.10019 | -115.75470 | 4000 ft | 209 kts | 353° |
| 2026-04-25 03:08 | 34.11242 | -115.76117 | 3995 ft | 182 kts | 306° |
| 2026-04-25 03:08 | 34.11768 | -115.77407 | 4008 ft | 173 kts | 283° |
| 2026-04-25 03:08 | 34.12050 | -115.78827 | 3930 ft | 175 kts | 275° |
| 2026-04-25 03:09 | 34.12243 | -115.80284 | 3813 ft | 177 kts | 271° |
| 2026-04-25 03:09 | 34.12369 | -115.81750 | 3680 ft | 173 kts | 273° |
| 2026-04-25 03:09 | 34.12547 | -115.83138 | 3369 ft | 169 kts | 277° |
| 2026-04-25 03:09 | 34.12849 | -115.84486 | 3132 ft | 166 kts | 281° |
| 2026-04-25 03:10 | 34.13050 | -115.85842 | 2752 ft | 163 kts | 259° |
| 2026-04-25 03:10 | 34.13132 | -115.87123 | 2726 ft | 150 kts | 275° |
| 2026-04-25 03:10 | 34.13417 | -115.88385 | 2382 ft | 158 kts | 276° |
| 2026-04-25 03:10 | 34.13583 | -115.89648 | 2260 ft | 142 kts | 270° |
| 2026-04-25 03:11 | 34.13638 | -115.90801 | 2198 ft | 134 kts | 261° |
| 2026-04-25 03:11 | 34.13530 | -115.91904 | 2161 ft | 132 kts | 256° |
| 2026-04-25 03:11 | 34.13448 | -115.92956 | 2045 ft | 123 kts | 265° |
| 2026-04-25 03:11 | 34.13441 | -115.93909 | 1947 ft | 102 kts | 266° |
| 2026-04-25 03:12 | 34.13438 | -115.94638 | 1947 ft | 57 kts | 265° |
| 2026-04-25 03:12 | 34.13434 | -115.95069 | 1946 ft | 47 kts | 270° |
| 2026-04-25 03:12 | 34.13435 | -115.95293 | 1945 ft | 15 kts | 267° |
| 2026-04-25 03:12 | 34.13485 | -115.95338 | 1944 ft | 10 kts | 1° |
| 2026-04-25 03:13 | 34.13518 | -115.95266 | 1943 ft | 17 kts | 90° |
| 2026-04-25 03:13 | 34.13518 | -115.95053 | 1943 ft | 32 kts | 88° |
| 2026-04-25 03:13 | 34.13520 | -115.94775 | 1943 ft | 33 kts | 90° |
| 2026-04-25 03:13 | 34.13521 | -115.94559 | 1942 ft | 13 kts | 87° |
| 2026-04-25 03:14 | 34.13525 | -115.94471 | 1942 ft | 10 kts | 93° |
| 2026-04-25 03:14 | 34.13548 | -115.94429 | 1942 ft | 1 kts | 2° |